Latest Weather Observations for Pound Creek

IDV60801

Issued at 7:35 pm EST Friday 1 August 2014 (issued every 30 minutes, with the page automatically refreshed every 10 minutes)

About weather observations | Map of weather stations | Latest weather observations for VIC | Other Formats
Station Details ID: 085099 Name: POUND CREEK Lat: -38.63 Lon: 145.81 Height: 3.0 m
Data from the previous 72 hours. | See also: Recent months at Pound Creek
Date/Time
EST
Temp
°C
App
Temp
°C
Dew
Point
Rel
Hum
%
Delta-T
°C
Wind Press
QNH
hPa
Press
MSL
hPa
Rain
since 9 am
mm
Dir
 
Spd
km/h
Gust
km/h
Spd
kts
Gust
kts
01/07:30pm 9.6 3.2 5.0 73 2.1 SSW 28 37 15 20 1014.3 - 11.6
01/07:00pm 9.1 3.3 4.3 72 2.1 SSW 24 33 13 18 1013.5 1013.5 11.6
01/06:30pm 9.0 1.0 4.0 71 2.2 SSW 35 54 19 29 1012.8 - 11.6
01/06:02pm 7.8 -1.5 5.1 83 1.2 SSW 43 54 23 29 1012.2 - 11.6
01/06:00pm 7.1 0.4 5.6 90 0.7 WSW 30 54 16 29 1012.2 1012.2 11.6
01/05:59pm 6.9 0.6 5.5 91 0.6 WSW 28 52 15 28 1012.1 - 11.6
01/05:30pm 5.5 -0.4 4.0 90 0.6 WSW 24 32 13 17 1011.2 - 11.2
01/05:12pm 6.6 -2.7 4.8 88 0.8 SSW 43 61 23 33 1011.2 - 9.4
01/05:00pm 7.5 -2.1 4.3 80 1.4 SSW 44 57 24 31 1010.1 1010.1 9.2
01/04:33pm 8.0 1.6 5.3 83 1.2 SSW 28 50 15 27 1009.0 - 9.2
01/04:30pm 7.6 2.3 5.2 85 1.1 SSW 22 32 12 17 1008.9 - 9.2
01/04:00pm 9.1 2.4 5.7 79 1.5 WSW 30 48 16 26 1007.9 1007.9 9.0
01/03:58pm 9.1 2.8 5.5 78 1.6 WSW 28 46 15 25 1007.8 - 9.0
01/03:52pm 8.1 1.8 5.9 86 1.0 WSW 28 39 15 21 1007.7 - 9.0
01/03:30pm 7.6 4.9 5.7 88 0.9 SW 9 15 5 8 1007.5 - 7.0
01/03:00pm 7.4 5.5 6.5 94 0.4 NW 6 9 3 5 1006.7 1006.7 6.6
01/02:30pm 6.7 4.3 5.2 90 0.7 WSW 7 11 4 6 1006.1 - 4.6
01/02:00pm 6.1 1.9 3.6 84 1.1 W 15 30 8 16 1005.3 1005.3 4.0
01/01:30pm 8.4 5.4 6.0 85 1.1 NW 11 20 6 11 1004.8 - 3.2
01/01:00pm 7.1 2.5 5.6 90 0.7 WNW 19 33 10 18 1004.3 1004.3 3.2
01/12:30pm 6.3 0.2 4.8 90 0.7 WNW 26 46 14 25 1003.8 - 2.8
01/12:00pm 7.3 0.5 5.3 87 0.9 WNW 30 52 16 28 1003.3 1003.3 0.8
01/11:32am 7.7 1.1 4.1 78 1.6 NW 28 57 15 31 1002.9 - 0.0
01/11:30am 7.8 1.5 4.0 77 1.6 NW 26 57 14 31 1002.8 - 0.0
01/11:20am 8.3 1.6 3.4 71 2.1 NW 28 48 15 26 1002.6 - 0.0
01/11:00am 8.5 1.8 3.4 70 2.2 NW 28 44 15 24 1002.6 1002.6 0.0
01/10:30am 8.7 1.6 3.7 71 2.2 NW 30 48 16 26 1002.1 - 0.0
01/10:04am 8.2 1.5 3.5 72 2.0 NW 28 48 15 26 1001.8 - 0.0
01/10:00am 8.0 2.0 3.5 73 1.9 NW 24 48 13 26 1001.8 1001.8 0.0
01/09:30am 7.2 1.2 3.3 76 1.6 NW 24 46 13 25 1001.8 - 0.0
01/09:00am 7.2 0.3 2.7 73 1.9 NW 28 48 15 26 1001.7 1001.7 10.6
01/08:30am 7.1 0.6 2.4 72 1.9 NNW 26 44 14 24 1001.1 - 10.6
01/08:21am 7.2 0.3 2.5 72 1.9 NNW 28 46 15 25 1001.0 - 10.6
01/08:00am 6.8 0.2 2.3 73 1.9 NNW 26 41 14 22 1001.0 1001.0 10.6
01/07:30am 6.4 0.6 2.1 74 1.7 NNW 22 37 12 20 1000.7 - 10.6
01/07:00am 6.4 0.5 1.9 73 1.8 NNW 22 35 12 19 1000.4 1000.4 10.6
01/06:30am 6.5 0.7 2.2 74 1.8 NW 22 39 12 21 1000.2 - 10.6
01/06:00am 6.4 1.0 2.3 75 1.7 NW 20 33 11 18 1000.2 1000.2 10.6
01/05:30am 6.5 0.4 2.6 76 1.6 NNW 24 41 13 22 999.5 - 10.6
01/05:00am 6.2 1.0 2.7 78 1.5 NNW 19 33 10 18 999.9 999.9 10.6
01/04:30am 6.8 1.5 2.9 76 1.6 NW 20 33 11 18 1000.0 - 10.6
01/04:00am 7.4 1.4 3.3 75 1.7 NW 24 41 13 22 999.9 999.9 10.6
01/03:30am 7.1 1.8 3.2 76 1.6 NW 20 35 11 19 1000.2 - 10.6
01/03:00am 6.9 1.6 3.2 77 1.6 NW 20 37 11 20 1000.5 1000.5 10.6
01/02:30am 7.1 1.4 3.0 75 1.7 NW 22 39 12 21 1000.6 - 10.6
01/02:00am 6.8 2.1 2.9 76 1.6 NW 17 30 9 16 1000.4 1000.4 10.6
01/01:30am 7.3 1.7 3.2 75 1.7 NW 22 37 12 20 999.8 - 10.6
01/01:00am 7.4 1.7 3.1 74 1.8 NW 22 41 12 22 999.8 999.8 10.6
01/12:30am 7.5 1.9 3.4 75 1.7 NW 22 44 12 24 999.5 - 10.6
01/12:00am 7.5 2.5 3.6 76 1.7 WNW 19 39 10 21 999.9 999.9 10.6
 
Date/Time
EST
Temp
°C
App
Temp
°C
Dew
Point
Rel
Hum
%
Delta-T
°C
Wind Press
QNH
hPa
Press
MSL
hPa
Rain
since 9 am
mm
Dir
 
Spd
km/h
Gust
km/h
Spd
kts
Gust
kts
31/11:30pm 6.5 1.4 4.3 86 0.9 WNW 20 30 11 16 1000.0 - 10.6
31/11:00pm 8.3 2.8 4.1 75 1.8 NW 22 35 12 19 999.9 999.9 10.4
31/10:30pm 8.2 2.7 4.0 75 1.8 NW 22 41 12 22 999.7 - 10.4
31/10:00pm 8.5 3.4 4.3 75 1.9 NW 20 33 11 18 999.5 999.5 10.4
31/09:30pm 8.6 2.8 4.4 75 1.8 WNW 24 43 13 23 999.0 - 10.4
31/09:00pm 8.3 3.1 5.6 83 1.2 NW 22 41 12 22 998.8 998.8 10.4
31/08:30pm 8.1 3.3 5.7 85 1.1 NW 20 30 11 16 998.6 - 10.4
31/08:00pm 8.0 2.8 5.6 85 1.1 NW 22 39 12 21 998.2 998.2 10.4
31/07:30pm 7.4 1.5 5.9 90 0.7 NNW 26 41 14 22 997.9 - 10.4
31/07:00pm 7.2 2.4 5.8 91 0.6 NNW 20 33 11 18 998.2 998.2 10.2
31/06:30pm 7.2 2.6 5.8 91 0.6 NW 19 30 10 16 998.4 - 10.2
31/06:00pm 7.3 2.8 5.9 91 0.6 WNW 19 33 10 18 997.7 997.7 9.0
31/05:30pm 7.7 0.8 6.5 92 0.5 W 32 54 17 29 997.5 - 8.0
31/05:03pm 8.0 1.5 6.5 90 0.7 WNW 30 50 16 27 997.1 - 6.6
31/05:00pm 8.1 1.0 6.6 90 0.7 WNW 33 52 18 28 997.0 997.0 6.4
31/04:30pm 8.6 0.4 6.4 86 1.0 W 39 59 21 32 996.7 - 5.2
31/04:00pm 8.5 -0.4 6.8 89 0.8 W 43 63 23 34 996.1 996.1 4.0
31/03:30pm 9.1 -0.5 7.9 92 0.6 WSW 48 70 26 38 995.4 - 3.2
31/03:05pm 10.1 0.4 8.9 92 0.6 W 50 70 27 38 994.1 - 1.6
31/03:00pm 10.2 0.8 8.8 91 0.7 W 48 67 26 36 994.0 994.0 1.4
31/02:42pm 11.3 1.9 8.7 84 1.3 W 48 72 26 39 993.1 - 0.2
31/02:36pm 16.3 7.9 7.3 55 4.5 W 41 69 22 37 993.0 - 0.0
31/02:30pm 16.7 10.6 6.8 52 4.9 NW 28 50 15 27 991.6 - 0.0
31/02:00pm 17.2 9.4 6.7 50 5.2 NW 37 59 20 32 991.1 991.1 0.0
31/01:30pm 17.5 9.8 7.0 50 5.2 NNW 37 69 20 37 991.5 - 0.0
31/01:00pm 17.6 7.7 6.8 49 5.4 NNW 48 80 26 43 991.4 991.4 0.0
31/12:30pm 17.5 6.9 7.0 50 5.2 NNW 52 82 28 44 992.1 - 0.0
31/12:00pm 17.5 8.7 7.3 51 5.2 NNW 43 69 23 37 993.3 993.3 0.0
31/11:30am 17.4 9.0 7.5 52 5.0 NNW 41 67 22 36 994.7 - 0.0
31/11:00am 17.4 9.0 7.5 52 5.0 NNW 41 67 22 36 995.8 995.8 0.0
31/10:30am 17.2 8.4 7.3 52 5.0 NNW 43 67 23 36 996.3 - 0.0
31/10:00am 17.0 8.3 7.6 54 4.8 NNW 43 72 23 39 996.8 996.8 0.0
31/09:30am 16.5 7.3 8.0 57 4.3 NNW 46 76 25 41 996.6 - 0.0
31/09:00am 16.3 8.4 7.8 57 4.3 NNW 39 65 21 35 997.8 997.8 0.0
31/08:30am 15.7 9.2 8.0 60 3.9 NNW 32 52 17 28 998.6 - 0.0
31/08:00am 15.6 9.3 7.6 59 4.0 NNW 30 54 16 29 999.3 999.3 0.0
31/07:30am 14.9 8.7 7.7 62 3.6 NNW 30 57 16 31 999.7 - 0.0
31/07:00am 15.1 7.9 7.6 61 3.7 NNW 35 57 19 31 999.8 999.8 0.0
31/06:30am 15.0 6.6 7.5 61 3.7 NNW 41 63 22 34 999.8 - 0.0
31/06:00am 14.7 7.0 7.3 61 3.7 NNW 37 59 20 32 1000.2 1000.2 0.0
31/05:32am 14.4 8.1 7.2 62 3.5 NNW 30 50 16 27 1000.8 - 0.0
31/05:30am 14.5 7.7 7.1 61 3.6 NNW 32 50 17 27 1000.8 - 0.0
31/05:00am 14.7 7.6 6.5 58 4.0 NNW 33 54 18 29 1001.1 1001.1 0.0
31/04:30am 14.8 8.4 6.9 59 3.9 NNW 30 50 16 27 1001.6 - 0.0
31/04:00am 15.0 7.8 7.5 61 3.7 NNW 35 59 19 32 1002.1 1002.1 0.0
31/03:30am 15.2 7.7 8.0 62 3.6 NNW 37 61 20 33 1002.6 - 0.0
31/03:00am 15.2 8.1 8.2 63 3.5 NNW 35 59 19 32 1003.0 1003.0 0.0
31/02:30am 15.0 8.6 9.4 69 2.9 NNW 33 56 18 30 1003.5 - 0.0
31/02:00am 15.1 8.6 8.8 66 3.2 NNW 33 59 18 32 1003.8 1003.8 0.0
31/01:31am 15.0 9.1 8.9 67 3.1 NNW 30 48 16 26 1004.4 - 0.0
31/01:30am 15.0 8.7 8.9 67 3.1 NNW 32 48 17 26 1004.4 - 0.0
31/01:01am 14.8 9.3 9.0 68 3.0 NNW 28 46 15 25 1004.8 - 0.0
31/01:00am 14.8 9.3 9.0 68 3.0 NNW 28 46 15 25 1004.9 1004.9 0.0
31/12:32am 14.8 9.3 9.2 69 2.9 NW 28 48 15 26 1005.6 - 0.0
31/12:30am 14.9 9.4 9.1 68 3.0 NNW 28 46 15 25 1005.7 - 0.0
31/12:01am 15.5 9.0 8.3 62 3.6 NNW 32 52 17 28 1005.7 - 0.0
31/12:00am 15.4 8.9 8.2 62 3.6 NNW 32 48 17 26 1005.7 1005.7 0.0
 
Date/Time
EST
Temp
°C
App
Temp
°C
Dew
Point
Rel
Hum
%
Delta-T
°C
Wind Press
QNH
hPa
Press
MSL
hPa
Rain
since 9 am
mm
Dir
 
Spd
km/h
Gust
km/h
Spd
kts
Gust
kts
30/11:30pm 15.7 9.2 8.2 61 3.8 NNW 32 52 17 28 1006.0 - 0.0
30/11:00pm 15.8 9.2 8.5 62 3.7 NNW 33 56 18 30 1005.9 1005.9 0.0
30/10:31pm 15.7 10.2 9.1 65 3.4 NNW 28 48 15 26 1006.6 - 0.0
30/10:30pm 15.8 10.3 9.2 65 3.4 NNW 28 46 15 25 1006.6 - 0.0
30/10:17pm 15.4 9.9 9.3 67 3.1 NNW 28 48 15 26 1006.6 - 0.0
30/10:00pm 15.5 10.8 9.4 67 3.2 NNW 24 43 13 23 1006.9 1006.9 0.0
30/09:38pm 15.6 10.1 9.3 66 3.2 NW 28 48 15 26 1007.3 - 0.0
30/09:30pm 15.6 10.5 9.3 66 3.2 NW 26 46 14 25 1007.5 - 0.0
30/09:07pm 15.5 10.1 9.6 68 3.1 NNW 28 48 15 26 1007.3 - 0.0
30/09:00pm 15.7 10.0 9.8 68 3.1 NNW 30 48 16 26 1007.3 1007.3 0.0
30/08:34pm 15.7 10.1 10.0 69 3.0 NNW 30 50 16 27 1007.0 - 0.0
30/08:30pm 15.7 9.7 10.0 69 3.0 NNW 32 50 17 27 1007.0 - 0.0
30/08:00pm 15.4 10.2 10.4 72 2.6 NNW 28 46 15 25 1007.1 1007.1 0.0
30/07:55pm 15.7 10.6 10.5 71 2.7 NNW 28 46 15 25 1007.1 - 0.0
30/07:30pm 15.3 10.9 10.5 73 2.5 NW 24 37 13 20 1007.1 - 0.0
30/07:00pm 15.3 10.9 10.5 73 2.5 NW 24 41 13 22 1007.5 1007.5 0.0
30/06:30pm 15.2 10.9 10.8 75 2.3 NNW 24 41 13 22 1007.5 - 0.0
30/06:00pm 14.9 11.4 10.9 77 2.1 NNW 20 35 11 19 1007.1 1007.1 0.0
30/05:30pm 15.3 11.5 11.1 76 2.2 NW 22 37 12 20 1007.1 - 0.0
30/05:00pm 14.6 11.3 11.6 82 1.6 NW 20 30 11 16 1007.3 1007.3 0.0
30/04:30pm 14.6 12.2 12.5 87 1.1 WNW 17 32 9 17 1007.7 - 0.0
30/04:00pm 14.9 11.9 12.6 86 1.3 NW 20 33 11 18 1007.6 1007.6 0.0
30/03:30pm 15.4 12.3 12.2 81 1.7 NW 20 35 11 19 1007.4 - 0.0
30/03:00pm 15.7 11.4 12.1 79 2.0 NW 26 43 14 23 1007.6 1007.6 0.0
30/02:52pm 16.0 11.3 12.0 77 2.2 NW 28 50 15 27 1007.6 - 0.0
30/02:30pm 15.9 12.1 11.3 74 2.5 NW 22 46 12 25 1007.8 - 0.0
30/02:00pm 16.6 13.2 11.1 70 3.0 WNW 20 33 11 18 1007.7 1007.7 0.0
30/01:30pm 16.0 11.8 11.0 72 2.7 WNW 24 44 13 24 1008.0 - 0.0
30/01:00pm 16.1 12.1 10.6 70 2.9 NW 22 37 12 20 1008.5 1008.5 0.0
30/12:30pm 16.8 13.5 11.5 71 2.9 NW 20 44 11 24 1009.1 - 0.0
30/12:00pm 16.3 12.2 11.5 73 2.6 NW 24 41 13 22 1009.4 1009.4 0.0
30/11:30am 15.4 12.4 11.8 79 1.9 NW 19 33 10 18 1010.3 - 0.0
30/11:00am 15.1 11.3 11.1 77 2.1 NW 22 33 12 18 1010.6 1010.6 0.0
30/10:30am 15.3 10.2 10.7 74 2.4 NW 28 44 15 24 1010.4 - 0.0
30/10:00am 14.2 9.7 10.2 77 2.1 NW 24 41 13 22 1010.8 1010.8 0.0
30/09:30am 14.5 11.0 10.3 76 2.2 NW 19 33 10 18 1010.5 - 0.0
30/09:00am 13.6 10.0 9.8 78 2.0 NW 19 30 10 16 1010.2 1010.2 2.6
30/08:30am 13.0 9.1 9.4 79 1.8 NW 20 32 11 17 1010.5 - 2.6
30/08:00am 12.6 8.9 9.4 81 1.6 NW 19 32 10 17 1010.3 1010.3 2.6
30/07:30am 12.1 8.7 9.3 83 1.4 NW 17 33 9 18 1010.3 - 2.6
30/07:00am 12.3 8.0 9.3 82 1.5 NW 22 43 12 23 1010.2 1010.2 2.6
30/06:30am 12.1 8.3 9.8 86 1.2 NW 20 30 11 16 1010.0 - 2.6
30/06:00am 12.3 8.7 10.0 86 1.2 NW 19 32 10 17 1009.8 1009.8 2.6
30/05:30am 12.4 9.0 10.6 89 0.9 NW 19 30 10 16 1009.4 - 2.6
30/05:00am 12.4 9.2 10.1 86 1.2 WNW 17 33 9 18 1009.4 1009.4 2.6
30/04:30am 12.6 8.6 10.5 87 1.1 WNW 22 43 12 23 1009.2 - 2.6
30/04:00am 12.9 9.6 11.0 88 1.0 WNW 19 35 10 19 1009.1 1009.1 2.6
30/03:30am 12.9 9.7 11.1 89 0.9 WNW 19 30 10 16 1009.1 - 2.6
30/03:00am 12.6 9.6 10.8 89 0.9 NW 17 33 9 18 1009.1 1009.1 2.4
30/02:30am 13.0 10.0 10.5 85 1.3 WNW 17 32 9 17 1009.1 - 2.4
30/02:00am 13.0 9.4 10.7 86 1.2 WNW 20 37 11 20 1008.9 1008.9 2.4
30/01:30am 12.7 9.7 11.8 94 0.5 WNW 19 35 10 19 1009.0 - 2.4
30/01:00am 12.7 8.7 11.8 94 0.5 WNW 24 35 13 19 1008.7 1008.7 2.2
30/12:42am 13.1 8.3 11.7 91 0.7 WNW 28 52 15 28 1008.2 - 1.8
30/12:30am 13.2 9.2 11.8 91 0.7 NW 24 46 13 25 1008.4 - 1.8
30/12:00am 13.5 9.4 11.6 88 1.0 WNW 24 48 13 26 1008.4 1008.4 1.4
 
Date/Time
EST
Temp
°C
App
Temp
°C
Dew
Point
Rel
Hum
%
Delta-T
°C
Wind Press
QNH
hPa
Press
MSL
hPa
Rain
since 9 am
mm
Dir
 
Spd
km/h
Gust
km/h
Spd
kts
Gust
kts
29/11:30pm 13.6 9.0 11.1 85 1.3 WNW 26 50 14 27 1008.0 - 1.4
29/11:00pm 13.1 10.3 11.5 90 0.9 NW 17 33 9 18 1008.2 1008.2 1.4
29/10:30pm 12.6 8.8 11.2 91 0.7 WNW 22 39 12 21 1008.0 - 1.4
29/10:11pm 13.4 8.4 10.9 85 1.3 WNW 28 52 15 28 1007.8 - 1.2
29/10:00pm 13.8 8.9 11.3 85 1.3 WNW 28 44 15 24 1007.7 1007.7 1.2
29/09:33pm 14.4 9.4 11.0 80 1.8 WNW 28 50 15 27 1007.4 - 1.2
29/09:30pm 14.5 10.3 11.1 80 1.8 WNW 24 50 13 27 1007.4 - 1.2
29/09:00pm 14.3 8.7 11.6 84 1.4 NW 32 54 17 29 1006.5 1006.5 1.2
29/08:33pm 14.5 9.6 11.3 81 1.7 NW 28 46 15 25 1006.2 - 1.2
29/08:30pm 14.5 10.0 11.3 81 1.7 NW 26 44 14 24 1006.3 - 1.2
29/08:00pm 14.5 10.3 11.1 80 1.8 NW 24 44 13 24 1006.3 1006.3 1.2

Other Formats:

Comma delimited format used in spreadsheet applications
http://www.bom.gov.au/fwo/IDV60801/IDV60801.94886.axf

JavaScript Object Notation format (JSON) in row-major order
http://www.bom.gov.au/fwo/IDV60801/IDV60801.94886.json